Weather at Los Bravos De Bonfil Airport

Public forecast

Using degrees Celsius for public forecast. Weather courtesy of forecast.io.

Closest aviation weather report (METAR) to Los Bravos De Bonfil Airport

Report is more than 2 hours old.

Closest report is Palenque International Airport, 33.2 nm (61.4 km) SW. Retrieved 2020/10/20 14:50 UTC (3 hours ago):

MMPQ 201450Z 00000KT 6SM FEW010 SCT200 26/24 A2979 RMK 8/108 HZY

Closest aviation forecast (TAF) to Los Bravos De Bonfil Airport

Forecast is more than 12 hours old.

Closest forecast is Palenque International Airport, 33.2 nm (61.4 km) SW. Retrieved 2020/10/19 18:14 UTC (23 hours ago):

TAF MMPQ 191714Z 1918/2018 09010KT P6SM SCT030 FM192200 09012KT P6SM BKN025 PROB40 2000/2004 5SM RA BKN020CB FM200600 00000KT 5SM HZ SCT015 BKN080 TEMPO 2013/2017 3SM BR BKN010